createdAt,value
2023-03-26T00:00:56.840Z,8.65
2023-03-26T00:04:00.438Z,8.18
2023-03-26T00:07:03.806Z,8.15
2023-03-26T00:10:07.693Z,8.42
2023-03-26T00:13:11.713Z,8.43
2023-03-26T00:16:18.342Z,8.11
2023-03-26T00:19:22.650Z,8.06
2023-03-26T00:22:26.805Z,8.28
2023-03-26T00:25:32.099Z,8.10
2023-03-26T00:28:36.079Z,7.87
2023-03-26T00:31:46.437Z,7.67
2023-03-26T00:34:52.075Z,7.87
2023-03-26T00:37:55.748Z,7.87
2023-03-26T00:41:06.279Z,8.31
2023-03-26T00:44:09.682Z,8.47
2023-03-26T00:47:13.443Z,8.30
2023-03-26T00:50:17.666Z,7.98
2023-03-26T00:53:22.658Z,7.81
2023-03-26T00:56:26.707Z,7.47
2023-03-26T00:59:30.613Z,7.18
2023-03-26T01:02:34.191Z,6.91
2023-03-26T01:05:49.068Z,6.84
2023-03-26T01:08:54.789Z,6.72
2023-03-26T01:11:58.214Z,6.59
2023-03-26T01:15:04.132Z,6.44
2023-03-26T01:18:09.995Z,6.16
2023-03-26T01:21:14.703Z,6.03
2023-03-26T01:24:19.439Z,6.01
2023-03-26T01:27:35.918Z,5.83
2023-03-26T01:30:45.574Z,5.97
2023-03-26T01:34:05.279Z,6.00
2023-03-26T01:37:27.372Z,6.14
2023-03-26T01:40:43.049Z,5.86
2023-03-26T01:44:07.193Z,5.95
2023-03-26T01:47:12.944Z,6.40
2023-03-26T01:50:16.620Z,6.44
2023-03-26T01:53:20.117Z,6.47
2023-03-26T01:56:42.128Z,6.04
2023-03-26T02:00:06.901Z,5.98
2023-03-26T02:03:30.814Z,5.70
2023-03-26T02:06:46.400Z,5.57
2023-03-26T02:09:55.503Z,5.33
2023-03-26T02:12:59.324Z,5.59
2023-03-26T02:16:05.878Z,6.19
2023-03-26T02:19:15.711Z,6.58
2023-03-26T02:22:19.472Z,6.72
2023-03-26T02:25:22.588Z,6.86
2023-03-26T02:28:26.831Z,7.24
2023-03-26T02:31:30.404Z,7.01
2023-03-26T02:34:34.282Z,6.71
2023-03-26T02:37:38.393Z,6.47
2023-03-26T02:40:44.137Z,6.15
2023-03-26T02:43:47.623Z,5.90
2023-03-26T02:46:51.560Z,5.71
2023-03-26T02:49:56.007Z,5.60
2023-03-26T02:53:00.890Z,5.35
2023-03-26T02:56:05.777Z,5.17
2023-03-26T02:59:12.067Z,4.99
2023-03-26T03:02:18.524Z,4.78
2023-03-26T03:05:26.637Z,4.65
2023-03-26T03:08:30.499Z,4.69
2023-03-26T03:11:36.038Z,4.86
2023-03-26T03:14:40.941Z,4.95
2023-03-26T03:17:46.251Z,5.11
2023-03-26T03:20:50.977Z,5.38
2023-03-26T03:24:00.232Z,5.33
2023-03-26T03:27:04.264Z,5.27
2023-03-26T03:30:09.564Z,5.13
2023-03-26T03:33:14.526Z,4.94
2023-03-26T03:36:22.133Z,4.75
2023-03-26T03:39:26.301Z,4.52
2023-03-26T03:42:30.898Z,4.45
2023-03-26T03:45:34.266Z,4.37
2023-03-26T03:48:39.245Z,4.22
2023-03-26T03:51:43.991Z,4.15
2023-03-26T03:54:48.647Z,3.95
2023-03-26T03:57:52.754Z,3.89
2023-03-26T04:01:00.984Z,3.83
2023-03-26T04:04:06.527Z,3.79
2023-03-26T04:07:13.560Z,3.61
2023-03-26T04:10:18.039Z,3.55
2023-03-26T04:13:24.221Z,3.50
2023-03-26T04:16:29.171Z,3.39
2023-03-26T04:19:34.008Z,3.33
2023-03-26T04:22:41.222Z,3.15
2023-03-26T04:25:50.634Z,3.10
2023-03-26T04:28:59.991Z,3.09
2023-03-26T04:32:07.158Z,3.24
2023-03-26T04:35:16.497Z,3.13
2023-03-26T04:38:20.648Z,3.06
2023-03-26T04:41:27.770Z,3.04
2023-03-26T04:44:31.957Z,3.02
2023-03-26T04:47:37.274Z,2.98
2023-03-26T04:50:49.391Z,2.88
2023-03-26T04:54:00.618Z,2.94
2023-03-26T04:57:09.332Z,2.99
2023-03-26T05:00:17.694Z,3.04
2023-03-26T05:03:21.828Z,3.12
2023-03-26T05:06:28.922Z,3.29
2023-03-26T05:09:32.241Z,3.57
2023-03-26T05:12:38.122Z,3.90
2023-03-26T05:15:41.701Z,4.02
2023-03-26T05:18:46.830Z,4.15
2023-03-26T05:21:50.355Z,4.18
2023-03-26T05:24:53.844Z,4.17
2023-03-26T05:27:57.125Z,4.37
2023-03-26T05:31:01.387Z,4.63
2023-03-26T05:34:05.040Z,5.03
2023-03-26T05:37:12.381Z,5.47
2023-03-26T05:40:17.248Z,5.65
2023-03-26T05:43:21.242Z,5.79
2023-03-26T05:46:26.646Z,6.05
2023-03-26T05:49:30.274Z,6.39
2023-03-26T05:52:34.266Z,6.75
2023-03-26T05:55:50.663Z,7.02
2023-03-26T05:59:02.301Z,7.22
2023-03-26T06:02:09.509Z,7.44
2023-03-26T06:05:16.764Z,7.41
2023-03-26T06:08:22.112Z,7.58
2023-03-26T06:11:26.031Z,7.71
2023-03-26T06:14:29.134Z,8.12
2023-03-26T06:17:34.527Z,8.71
2023-03-26T06:20:42.692Z,9.66
2023-03-26T06:23:50.223Z,10.55
2023-03-26T06:26:53.659Z,11.05
2023-03-26T06:29:57.281Z,11.57
2023-03-26T06:33:01.236Z,12.05
2023-03-26T06:36:05.568Z,12.35
2023-03-26T06:39:08.915Z,12.87
2023-03-26T06:42:13.209Z,13.17
2023-03-26T06:45:17.339Z,13.49
2023-03-26T06:48:25.740Z,13.68
2023-03-26T06:51:31.592Z,13.65
2023-03-26T06:54:38.648Z,13.68
2023-03-26T06:57:45.361Z,14.08
2023-03-26T07:00:54.517Z,14.03
2023-03-26T07:04:01.244Z,14.38
2023-03-26T07:07:14.837Z,14.46
2023-03-26T07:10:20.543Z,14.09
2023-03-26T07:13:24.606Z,14.13
2023-03-26T07:16:30.295Z,14.09
2023-03-26T07:19:35.249Z,14.09
2023-03-26T07:22:39.226Z,14.16
2023-03-26T07:25:44.133Z,14.07
2023-03-26T07:29:12.807Z,14.39
2023-03-26T07:32:22.398Z,14.44
2023-03-26T07:35:48.997Z,14.52
2023-03-26T07:39:33.156Z,14.67
2023-03-26T07:43:09.388Z,15.00
2023-03-26T07:46:15.565Z,15.27
2023-03-26T07:49:20.803Z,15.06
2023-03-26T07:52:27.721Z,14.85
2023-03-26T07:55:31.662Z,15.86
2023-03-26T07:58:53.129Z,15.79
2023-03-26T08:02:21.441Z,15.38
2023-03-26T08:05:56.468Z,15.01
2023-03-26T08:09:22.898Z,14.79
2023-03-26T08:12:36.849Z,14.14
2023-03-26T08:15:57.859Z,13.80
2023-03-26T08:19:51.979Z,13.95
2023-03-26T08:23:02.417Z,13.86
2023-03-26T08:26:13.819Z,13.90
2023-03-26T08:29:34.767Z,13.81
2023-03-26T08:32:39.258Z,13.53
2023-03-26T08:35:43.204Z,13.36
2023-03-26T08:38:47.000Z,13.38
2023-03-26T08:41:58.981Z,13.31
2023-03-26T08:45:17.640Z,13.42
2023-03-26T08:49:01.522Z,13.50
2023-03-26T08:52:14.134Z,13.30
2023-03-26T08:55:26.253Z,13.34
2023-03-26T08:58:53.117Z,13.11
2023-03-26T09:02:08.897Z,13.14
2023-03-26T09:06:08.709Z,13.30
2023-03-26T09:09:49.442Z,13.32
2023-03-26T09:13:17.000Z,13.59
2023-03-26T09:16:26.592Z,14.13
2023-03-26T09:19:48.844Z,14.22
2023-03-26T09:23:07.166Z,14.01
2023-03-26T09:26:26.273Z,13.92
2023-03-26T09:30:07.136Z,13.93
2023-03-26T09:33:32.938Z,14.31
2023-03-26T09:36:49.590Z,13.92
2023-03-26T09:40:08.183Z,14.18
2023-03-26T09:43:36.926Z,14.19
2023-03-26T09:47:20.032Z,14.06
2023-03-26T09:50:35.241Z,13.91
2023-03-26T09:54:06.331Z,14.15
2023-03-26T09:57:22.913Z,14.19
2023-03-26T10:00:42.181Z,13.91
2023-03-26T10:04:24.493Z,13.72
2023-03-26T10:07:53.554Z,14.08
2023-03-26T10:10:59.686Z,14.65
2023-03-26T10:14:11.688Z,14.79
2023-03-26T10:17:32.065Z,15.32
2023-03-26T10:21:01.525Z,16.39
2023-03-26T10:24:34.730Z,16.51
2023-03-26T10:27:47.939Z,16.67
2023-03-26T10:31:06.248Z,16.12
2023-03-26T10:34:19.430Z,16.21
2023-03-26T10:37:51.689Z,16.42
2023-03-26T10:41:09.097Z,16.38
2023-03-26T10:44:31.830Z,16.56
2023-03-26T10:47:41.105Z,17.30
2023-03-26T10:51:06.442Z,17.10
2023-03-26T10:54:31.524Z,17.47
2023-03-26T10:57:46.368Z,17.47
2023-03-26T11:01:02.583Z,17.16
2023-03-26T11:04:44.886Z,16.74
2023-03-26T11:08:13.772Z,17.16
2023-03-26T11:11:23.417Z,16.57
2023-03-26T11:14:35.297Z,17.89
2023-03-26T11:18:00.450Z,18.10
2023-03-26T11:21:19.771Z,16.79
2023-03-26T11:24:57.665Z,16.63
2023-03-26T11:28:23.836Z,17.37
2023-03-26T11:31:45.728Z,16.85
2023-03-26T11:35:09.502Z,16.91
2023-03-26T11:38:20.998Z,19.02
2023-03-26T11:41:27.500Z,17.81
2023-03-26T11:44:39.629Z,16.50
2023-03-26T11:48:13.957Z,15.93
2023-03-26T11:51:25.905Z,16.80
2023-03-26T11:54:29.728Z,18.21
2023-03-26T11:57:36.305Z,17.73
2023-03-26T12:00:40.577Z,16.82
2023-03-26T12:03:57.615Z,17.94
2023-03-26T12:07:16.642Z,18.19
2023-03-26T12:10:26.497Z,17.90
2023-03-26T12:13:43.575Z,17.51
2023-03-26T12:17:14.456Z,17.42
2023-03-26T12:20:26.899Z,17.57
2023-03-26T12:23:46.027Z,17.23
2023-03-26T12:26:58.324Z,17.59
2023-03-26T12:30:22.497Z,18.48
2023-03-26T12:33:29.678Z,17.87
2023-03-26T12:36:35.995Z,16.66
2023-03-26T12:40:10.129Z,16.53
2023-03-26T12:44:55.972Z,16.35
2023-03-26T12:47:57.381Z,16.07
2023-03-26T12:50:42.849Z,16.35
2023-03-26T12:53:59.047Z,16.35
2023-03-26T12:57:22.826Z,16.25
2023-03-26T13:00:26.492Z,17.54
2023-03-26T13:03:51.742Z,18.31
2023-03-26T13:07:02.623Z,17.66
2023-03-26T13:10:57.683Z,17.06
2023-03-26T13:14:39.240Z,16.33
2023-03-26T13:18:02.503Z,15.81
2023-03-26T13:21:34.064Z,15.69
2023-03-26T13:24:49.474Z,16.62
2023-03-26T13:28:31.921Z,18.10
2023-03-26T13:32:05.598Z,17.34
2023-03-26T13:35:24.690Z,17.05
2023-03-26T13:38:58.960Z,17.42
2023-03-26T13:42:18.888Z,17.76
2023-03-26T13:45:54.595Z,18.49
2023-03-26T13:49:09.561Z,18.71
2023-03-26T13:52:19.315Z,18.65
2023-03-26T13:55:27.339Z,18.30
2023-03-26T13:59:09.589Z,17.69
2023-03-26T14:02:43.319Z,17.00
2023-03-26T14:05:51.979Z,16.73
2023-03-26T14:09:10.773Z,17.10
2023-03-26T14:12:39.228Z,17.12
2023-03-26T14:15:55.414Z,18.02
2023-03-26T14:19:25.045Z,18.15
2023-03-26T14:23:03.913Z,18.35
2023-03-26T14:26:42.812Z,18.26
2023-03-26T14:30:12.761Z,17.62
2023-03-26T14:33:28.501Z,17.47
2023-03-26T14:36:47.065Z,17.58
2023-03-26T14:40:23.594Z,18.06
2023-03-26T14:44:15.658Z,18.33
2023-03-26T14:47:23.001Z,18.40
2023-03-26T14:50:47.247Z,18.54
2023-03-26T14:54:01.025Z,18.45
2023-03-26T14:57:21.753Z,18.47
2023-03-26T15:00:56.278Z,18.03
2023-03-26T15:04:26.897Z,17.41
2023-03-26T15:07:53.444Z,17.37
2023-03-26T15:11:46.521Z,17.30
2023-03-26T15:15:31.306Z,17.31
2023-03-26T15:18:45.275Z,17.29
2023-03-26T15:22:15.769Z,17.19
2023-03-26T15:25:42.011Z,16.89
2023-03-26T15:29:04.015Z,16.70
2023-03-26T15:32:30.375Z,16.54
2023-03-26T15:35:46.228Z,16.61
2023-03-26T15:39:21.110Z,16.58
2023-03-26T15:42:38.283Z,16.37
2023-03-26T15:46:04.319Z,16.12
2023-03-26T15:49:40.411Z,16.11
2023-03-26T15:53:04.283Z,16.10
2023-03-26T15:56:17.861Z,16.16
2023-03-26T15:59:43.321Z,15.99
2023-03-26T16:02:53.980Z,15.77
2023-03-26T16:06:16.275Z,15.66
2023-03-26T16:09:40.430Z,15.46
2023-03-26T16:13:17.522Z,15.26
2023-03-26T16:16:25.800Z,15.29
2023-03-26T16:19:52.198Z,15.17
2023-03-26T16:23:17.047Z,14.88
2023-03-26T16:26:47.193Z,14.71
2023-03-26T16:30:02.016Z,14.55
2023-03-26T16:33:21.402Z,14.34
2023-03-26T16:36:35.239Z,14.20
2023-03-26T16:39:41.381Z,14.08
2023-03-26T16:43:25.750Z,14.04
2023-03-26T16:47:05.665Z,13.74
2023-03-26T16:50:12.380Z,13.66
2023-03-26T16:53:27.182Z,13.53
2023-03-26T16:56:49.895Z,13.58
2023-03-26T17:00:19.640Z,13.36
2023-03-26T17:03:48.878Z,13.12
2023-03-26T17:06:57.449Z,12.94
2023-03-26T17:10:31.741Z,12.99
2023-03-26T17:14:16.541Z,12.74
2023-03-26T17:17:47.391Z,12.43
2023-03-26T17:21:24.094Z,12.14
2023-03-26T17:24:33.709Z,12.00
2023-03-26T17:27:53.459Z,11.98
2023-03-26T17:31:36.999Z,11.95
2023-03-26T17:34:51.571Z,11.84
2023-03-26T17:37:58.770Z,11.89
2023-03-26T17:41:05.508Z,11.84
2023-03-26T17:44:43.544Z,12.02
2023-03-26T17:47:59.904Z,12.03
2023-03-26T17:51:43.018Z,11.88
2023-03-26T17:54:52.760Z,11.79
2023-03-26T17:58:05.118Z,11.64
2023-03-26T18:01:38.601Z,11.57
2023-03-26T18:04:48.514Z,11.75
2023-03-26T18:08:24.642Z,11.65
2023-03-26T18:12:02.038Z,11.66
2023-03-26T18:15:14.933Z,11.68
2023-03-26T18:18:23.676Z,11.75
2023-03-26T18:21:52.829Z,11.75
2023-03-26T18:25:00.465Z,11.73
2023-03-26T18:28:06.562Z,11.87
2023-03-26T18:31:32.249Z,11.88
2023-03-26T18:34:40.482Z,11.92
2023-03-26T18:37:46.264Z,11.92
2023-03-26T18:40:56.533Z,11.87
2023-03-26T18:44:12.243Z,11.88
2023-03-26T18:47:16.899Z,11.86
2023-03-26T18:50:43.670Z,11.90
2023-03-26T18:53:52.713Z,11.95
2023-03-26T18:56:59.686Z,11.96
2023-03-26T19:00:19.398Z,12.05
2023-03-26T19:03:26.675Z,12.08
2023-03-26T19:06:39.009Z,12.14
2023-03-26T19:09:44.645Z,12.26
2023-03-26T19:13:00.218Z,12.31
2023-03-26T19:16:34.457Z,12.31
2023-03-26T19:19:39.178Z,12.20
2023-03-26T19:22:46.930Z,12.14
2023-03-26T19:26:00.204Z,12.10
2023-03-26T19:29:06.316Z,11.92
2023-03-26T19:32:20.367Z,11.90
2023-03-26T19:35:25.953Z,11.82
2023-03-26T19:38:39.566Z,11.75
2023-03-26T19:41:50.988Z,11.77
2023-03-26T19:44:58.930Z,11.77
2023-03-26T19:48:15.298Z,11.73
2023-03-26T19:51:23.925Z,11.75
2023-03-26T19:54:33.793Z,11.66
2023-03-26T19:57:38.539Z,11.65
2023-03-26T20:00:46.145Z,11.74
2023-03-26T20:03:58.365Z,11.60
2023-03-26T20:07:03.046Z,11.63
2023-03-26T20:10:11.405Z,11.68
2023-03-26T20:13:18.588Z,11.42
2023-03-26T20:16:27.667Z,11.57
2023-03-26T20:19:32.215Z,11.55
2023-03-26T20:22:36.842Z,11.47
2023-03-26T20:25:50.188Z,11.32
2023-03-26T20:28:55.268Z,11.44
2023-03-26T20:31:59.973Z,11.40
2023-03-26T20:35:35.867Z,11.27
2023-03-26T20:38:44.777Z,11.20
2023-03-26T20:41:50.854Z,11.22
2023-03-26T20:44:58.828Z,11.30
2023-03-26T20:48:04.150Z,11.31
2023-03-26T20:51:15.663Z,11.34
2023-03-26T20:54:24.030Z,11.35
2023-03-26T20:57:27.558Z,11.36
2023-03-26T21:00:32.759Z,11.39
2023-03-26T21:03:36.138Z,11.32
2023-03-26T21:06:43.952Z,11.30
2023-03-26T21:09:48.861Z,11.38
2023-03-26T21:13:11.318Z,11.29
2023-03-26T21:16:15.011Z,11.45
2023-03-26T21:19:19.365Z,11.45
2023-03-26T21:22:25.985Z,11.58
2023-03-26T21:25:45.535Z,11.66
2023-03-26T21:28:50.531Z,11.85
2023-03-26T21:31:56.028Z,11.86
2023-03-26T21:34:59.718Z,11.83
2023-03-26T21:38:04.701Z,11.81
2023-03-26T21:41:25.340Z,11.64
2023-03-26T21:44:29.267Z,11.49
2023-03-26T21:47:32.765Z,11.35
2023-03-26T21:50:37.098Z,11.10
2023-03-26T21:53:41.730Z,10.98
2023-03-26T21:56:53.177Z,10.78
2023-03-26T22:00:25.735Z,10.70
2023-03-26T22:03:38.525Z,10.58
2023-03-26T22:06:49.245Z,10.37
2023-03-26T22:09:53.070Z,10.46
2023-03-26T22:12:56.523Z,10.44
2023-03-26T22:16:00.267Z,10.36
2023-03-26T22:19:03.455Z,10.32
2023-03-26T22:22:06.855Z,10.34
2023-03-26T22:25:10.580Z,10.38
2023-03-26T22:28:13.977Z,10.31
2023-03-26T22:31:17.742Z,10.24
2023-03-26T22:34:23.214Z,10.20
2023-03-26T22:37:26.439Z,10.15
2023-03-26T22:40:30.895Z,10.06
2023-03-26T22:43:34.486Z,9.82
2023-03-26T22:46:38.908Z,9.73
2023-03-26T22:49:42.089Z,9.59
2023-03-26T22:52:45.916Z,9.47
2023-03-26T22:55:49.025Z,9.37
2023-03-26T22:58:52.848Z,9.30
2023-03-26T23:01:56.808Z,9.18
2023-03-26T23:05:00.519Z,9.07
2023-03-26T23:08:04.195Z,9.03
2023-03-26T23:11:13.243Z,8.95
2023-03-26T23:14:16.733Z,8.89
2023-03-26T23:17:20.234Z,8.81
2023-03-26T23:20:24.064Z,8.90
2023-03-26T23:23:31.026Z,8.80
2023-03-26T23:26:43.872Z,8.76
2023-03-26T23:29:53.558Z,8.76
2023-03-26T23:32:57.410Z,8.78
2023-03-26T23:36:07.243Z,8.83
2023-03-26T23:39:10.999Z,8.80
2023-03-26T23:42:28.750Z,8.75
2023-03-26T23:45:33.570Z,8.79
2023-03-26T23:48:37.859Z,8.64
2023-03-26T23:51:42.223Z,8.75
2023-03-26T23:54:47.454Z,8.73
2023-03-26T23:57:51.733Z,8.71
